Northwood, IA

11:34 AM CDT on March 24, 2017 (GMT -0500)
KMNGLENV5 | | Change Station

Elev 1320 ft 43.54 °N, 93.24 °W | Updated 4 minutes ago

Overcast
Overcast
39.0 °F
Feels Like 30 °F
N
15.9
Wind Variable Wind from East
Gusts 17.4 mph

Today
High -- | Low -- °F
--% Chance of Precip.
Yesterday
High -- | Low -- °F
Precip. -- in
Pressure 29.93 in
Visibility 4.0 miles
Clouds Overcast 600 ft
Windchill 30 °F
Dew Point 38 °F
Humidity 98%
Rainfall 0.27 in
Snow Depth Not available.
7:08 AM 7:30 PM
Waning Crescent, 14% visible
METAR KAEL 241612Z AUTO 01010G16KT 4SM -RA OVC006 03/03 A2993 RMK AO2
Pressure 29.93 in
Visibility 4.0 miles
Clouds Overcast 600 ft
Windchill 30 °F
Dew Point 38 °F
Humidity 98%
Rainfall 0.27 in
Snow Depth Not available.
7:08 AM 7:30 PM
Waning Crescent, 14% visible
METAR KAEL 241612Z AUTO 01010G16KT 4SM -RA OVC006 03/03 A2993 RMK AO2

Get Severe Weather Alerts

Thanks for signing up!

Be on the lookout for a verification email in your inbox.

You'll start receiving the daily forecast at 8 AM.

×

10-Day Weather Forecast

Almanac

Astronomy

Mar. 24, 2017 Rise Set
Actual Time
Civil Twilight
Nautical Twilight
Astronomical Twilight
Moon
Length of Visible Light
Length of Day
Tomorrow will be .
, % of the Moon is Illuminated

Today's Extremes

State Highs State Lows

Community

WunderPhotos

Upload Photos

1,962,540 photos uploaded!

WunderBlog® & News

Nearby

Air Quality

  Air Quality AQ Index Pollutant
Not available.

Snow Depth

Station Depth Elevation

Earthquake Activity

City Distance Mag. Time & Date
Minimum magnitude displayed is 2.5.

Earthquake Activity

City Distance Mag. Time & Date
Minimum magnitude displayed is 2.5.

Coastal Water Temperatures

Place Temperature

Stations

Nearby Weather Stations

Station Location Temp. Windchill Dew Point Humidity Wind Precip. Elev Updated Type
                   

Watches & Warnings

There are currently no watches in effect.